Terminal Aerodrome Forecast
Issued by NWS Charleston, WV

Current Version | Previous Version | Graphics & Text | Print | Product List | Glossary On
Versions: 1 2 3 4 5 6 7 8 9 10 11 12 13 14 15 16 17 18 19 20 21 22 23 24 25
000
FTUS41 KRLX 191700
TAFBKW
TAF
KBKW 191740Z 1918/2018 15010G16KT 5SM SHRA BR OVC045
     FM191900 14010G15KT P6SM SHRA BKN060 OVC100
     FM192200 14009KT P6SM OVC045=

USA.gov is the U.S. government's official web portal to all federal, state and local government web resources and services.